createdAt,value
2022-12-17T00:05:19.293Z,35.67
2022-12-17T00:10:39.367Z,32.80
2022-12-17T00:15:59.449Z,33.67
2022-12-17T00:21:19.911Z,35.40
2022-12-17T00:26:40.197Z,36.67
2022-12-17T00:32:00.068Z,36.10
2022-12-17T00:37:20.095Z,35.43
2022-12-17T00:42:40.252Z,34.23
2022-12-17T00:48:00.239Z,33.10
2022-12-17T00:53:20.511Z,33.63
2022-12-17T00:58:40.668Z,32.87
2022-12-17T01:04:00.963Z,30.00
2022-12-17T01:09:21.371Z,30.33
2022-12-17T01:14:41.552Z,29.97
2022-12-17T01:20:01.711Z,26.97
2022-12-17T01:25:21.734Z,26.03
2022-12-17T01:30:41.848Z,27.50
2022-12-17T01:36:02.153Z,28.07
2022-12-17T01:41:24.200Z,30.03
2022-12-17T01:46:47.193Z,31.20
2022-12-17T01:52:14.903Z,31.97
2022-12-17T01:57:35.187Z,32.13
2022-12-17T02:02:55.542Z,33.90
2022-12-17T02:08:33.364Z,31.77
2022-12-17T02:13:58.135Z,32.53
2022-12-17T02:19:29.284Z,32.97
2022-12-17T02:25:12.243Z,34.13
2022-12-17T02:30:32.356Z,31.15
2022-12-17T02:36:15.832Z,32.73
2022-12-17T02:41:39.946Z,32.55
2022-12-17T02:52:30.630Z,32.03
2022-12-17T02:57:54.035Z,34.67
2022-12-17T03:03:14.474Z,33.63
2022-12-17T03:08:34.435Z,35.67
2022-12-17T03:13:54.721Z,36.50
2022-12-17T03:19:16.329Z,38.00
2022-12-17T03:24:36.496Z,37.20
2022-12-17T03:29:56.159Z,37.90
2022-12-17T03:35:16.456Z,37.93
2022-12-17T03:40:36.439Z,37.17
2022-12-17T03:45:56.474Z,33.73
2022-12-17T03:51:17.342Z,36.13
2022-12-17T03:56:37.540Z,36.40
2022-12-17T04:01:57.820Z,38.77
2022-12-17T04:07:17.990Z,38.07
2022-12-17T04:12:38.199Z,35.93
2022-12-17T04:17:58.577Z,35.03
2022-12-17T04:23:18.593Z,35.30
2022-12-17T04:28:38.798Z,35.10
2022-12-17T04:33:58.918Z,34.80
2022-12-17T04:39:35.742Z,35.57
2022-12-17T04:44:55.714Z,34.17
2022-12-17T04:50:15.759Z,38.37
2022-12-17T04:55:35.941Z,37.57
2022-12-17T05:00:56.077Z,38.43
2022-12-17T05:06:16.199Z,38.00
2022-12-17T05:11:36.397Z,36.37
2022-12-17T05:16:56.556Z,39.00
2022-12-17T05:22:16.915Z,40.73
2022-12-17T05:27:37.007Z,37.70
2022-12-17T05:32:57.245Z,39.13
2022-12-17T05:38:25.105Z,39.10
2022-12-17T05:43:45.012Z,38.30
2022-12-17T05:49:05.076Z,37.43
2022-12-17T05:54:25.688Z,38.90
2022-12-17T05:59:45.805Z,37.23
2022-12-17T06:05:06.000Z,37.87
2022-12-17T06:10:26.050Z,37.87
2022-12-17T06:15:46.281Z,39.67
2022-12-17T06:21:06.985Z,40.20
2022-12-17T06:26:26.988Z,41.97
2022-12-17T06:31:47.202Z,40.03
2022-12-17T06:37:07.062Z,38.73
2022-12-17T06:42:27.241Z,35.77
2022-12-17T06:47:47.468Z,36.27
2022-12-17T06:53:19.664Z,37.13
2022-12-17T06:58:39.727Z,37.03
2022-12-17T07:03:59.851Z,33.43
2022-12-17T07:09:20.208Z,34.63
2022-12-17T07:14:40.306Z,30.90
2022-12-17T07:20:00.516Z,27.80
2022-12-17T07:25:20.680Z,29.50
2022-12-17T07:30:40.868Z,28.57
2022-12-17T07:36:00.867Z,31.17
2022-12-17T07:41:21.063Z,31.80
2022-12-17T07:46:41.173Z,31.87
2022-12-17T07:52:01.239Z,33.70
2022-12-17T07:57:21.004Z,30.93
2022-12-17T08:02:41.492Z,33.30
2022-12-17T08:08:01.707Z,31.17
2022-12-17T08:13:23.954Z,33.70
2022-12-17T08:18:44.095Z,31.70
2022-12-17T08:24:04.359Z,29.57
2022-12-17T08:29:24.542Z,29.50
2022-12-17T08:34:44.668Z,31.47
2022-12-17T08:40:04.677Z,28.37
2022-12-17T08:45:25.531Z,27.00
2022-12-17T08:50:45.563Z,28.43
2022-12-17T08:56:05.821Z,28.03
2022-12-17T09:01:26.270Z,27.13
2022-12-17T09:06:46.551Z,32.53
2022-12-17T09:12:06.549Z,28.80
2022-12-17T09:17:26.740Z,31.07
2022-12-17T09:22:46.873Z,33.10
2022-12-17T09:28:07.063Z,33.63
2022-12-17T09:33:27.109Z,33.70
2022-12-17T09:38:47.539Z,31.33
2022-12-17T09:44:23.947Z,29.47
2022-12-17T09:49:46.682Z,29.50
2022-12-17T09:55:10.149Z,30.60
2022-12-17T10:01:00.833Z,28.65
2022-12-17T10:06:40.719Z,30.03
2022-12-17T10:12:00.692Z,28.70
2022-12-17T10:17:20.918Z,30.30
2022-12-17T10:22:41.507Z,30.00
2022-12-17T10:28:01.731Z,31.13
2022-12-17T10:33:26.362Z,32.63
2022-12-17T10:38:48.955Z,33.30
2022-12-17T10:44:08.844Z,31.20
2022-12-17T10:49:37.626Z,31.30
2022-12-17T10:54:58.491Z,34.90
2022-12-17T11:00:32.449Z,35.07
2022-12-17T11:11:26.282Z,29.37
2022-12-17T11:16:52.290Z,29.93
2022-12-17T11:22:20.186Z,29.90
2022-12-17T11:27:51.951Z,33.83
2022-12-17T11:33:18.120Z,33.57
2022-12-17T11:38:51.251Z,32.30
2022-12-17T11:44:38.855Z,33.57
2022-12-17T11:50:07.848Z,31.73
2022-12-17T11:55:54.245Z,32.03
2022-12-17T12:01:35.951Z,34.63
2022-12-17T12:07:16.295Z,30.83
2022-12-17T12:13:00.317Z,34.87
2022-12-17T12:18:53.627Z,33.30
2022-12-17T12:24:25.763Z,32.80
2022-12-17T12:30:02.761Z,32.93
2022-12-17T12:35:26.475Z,34.07
2022-12-17T12:40:52.724Z,33.38
2022-12-17T12:46:21.368Z,35.37
2022-12-17T12:51:45.961Z,35.00
2022-12-17T12:57:05.811Z,35.70
2022-12-17T13:02:47.754Z,37.13
2022-12-17T13:07:49.367Z,35.90
2022-12-17T13:12:51.423Z,29.30
2022-12-17T13:18:03.625Z,31.27
2022-12-17T13:23:11.121Z,37.70
2022-12-17T13:28:30.847Z,35.33
2022-12-17T13:33:56.606Z,29.97
2022-12-17T13:39:24.239Z,34.17
2022-12-17T13:44:29.807Z,38.80
2022-12-17T13:49:31.642Z,31.57
2022-12-17T13:54:33.251Z,34.53
2022-12-17T13:59:34.698Z,32.50
2022-12-17T14:04:36.099Z,37.10
2022-12-17T14:09:42.653Z,32.87
2022-12-17T14:14:48.387Z,37.97
2022-12-17T14:20:02.341Z,31.50
2022-12-17T14:25:06.657Z,31.17
2022-12-17T14:30:23.543Z,33.28
2022-12-17T14:35:31.706Z,33.43
2022-12-17T14:40:33.251Z,35.10
2022-12-17T14:45:54.792Z,36.87
2022-12-17T14:50:56.498Z,38.77
2022-12-17T14:55:58.954Z,38.90
2022-12-17T15:01:07.844Z,38.13
2022-12-17T15:06:13.241Z,42.47
2022-12-17T15:11:18.144Z,34.83
2022-12-17T15:16:19.677Z,40.83
2022-12-17T15:21:21.299Z,39.93
2022-12-17T15:26:23.828Z,40.70
2022-12-17T15:31:27.595Z,44.57
2022-12-17T15:36:32.498Z,52.97
2022-12-17T15:41:52.774Z,56.50
2022-12-17T15:46:54.425Z,53.17
2022-12-17T15:51:55.888Z,40.67
2022-12-17T15:56:58.099Z,39.50
2022-12-17T16:01:59.856Z,36.37
2022-12-17T16:07:01.534Z,37.80
2022-12-17T16:12:03.059Z,36.83
2022-12-17T16:17:04.544Z,40.83
2022-12-17T16:22:06.038Z,40.57
2022-12-17T16:27:07.731Z,40.30
2022-12-17T16:32:09.279Z,41.43
2022-12-17T16:37:11.165Z,42.90
2022-12-17T16:42:12.748Z,44.00
2022-12-17T16:47:14.176Z,44.77
2022-12-17T16:52:15.583Z,43.40
2022-12-17T16:57:17.030Z,44.10
2022-12-17T17:02:18.706Z,52.43
2022-12-17T17:07:20.215Z,51.50
2022-12-17T17:12:21.634Z,51.93
2022-12-17T17:17:53.880Z,47.50
2022-12-17T17:22:44.592Z,47.23
2022-12-17T17:27:46.014Z,45.83
2022-12-17T17:32:47.659Z,46.80
2022-12-17T17:37:49.125Z,47.97
2022-12-17T17:42:53.029Z,44.53
2022-12-17T17:47:54.688Z,55.40
2022-12-17T17:52:56.160Z,51.30
2022-12-17T17:57:57.574Z,49.33
2022-12-17T18:02:59.256Z,47.60
2022-12-17T18:08:00.922Z,52.07
2022-12-17T18:13:21.161Z,48.00
2022-12-17T18:18:22.622Z,46.47
2022-12-17T18:23:24.035Z,49.20
2022-12-17T18:28:25.552Z,47.50
2022-12-17T18:33:30.052Z,49.23
2022-12-17T18:38:31.647Z,46.17
2022-12-17T18:43:33.051Z,48.00
2022-12-17T18:48:34.702Z,48.67
2022-12-17T18:53:36.440Z,47.00
2022-12-17T18:58:38.288Z,48.40
2022-12-17T19:03:39.987Z,48.17
2022-12-17T19:08:41.427Z,53.83
2022-12-17T19:13:43.599Z,57.37
2022-12-17T19:18:45.301Z,52.70
2022-12-17T19:23:48.108Z,46.07
2022-12-17T19:28:51.778Z,51.67
2022-12-17T19:33:57.983Z,47.73
2022-12-17T19:39:01.785Z,45.03
2022-12-17T19:44:06.338Z,44.15
2022-12-17T19:49:10.707Z,46.37
2022-12-17T19:54:14.823Z,45.80
2022-12-17T19:59:16.431Z,45.45
2022-12-17T20:04:18.860Z,44.33
2022-12-17T20:09:20.286Z,44.13
2022-12-17T20:14:28.616Z,42.67
2022-12-17T20:19:32.203Z,43.90
2022-12-17T20:24:33.668Z,41.83
2022-12-17T20:29:35.734Z,44.33
2022-12-17T20:34:37.203Z,41.33
2022-12-17T20:39:38.769Z,41.90
2022-12-17T20:44:40.264Z,49.07
2022-12-17T20:49:41.816Z,39.73
2022-12-17T20:54:43.293Z,52.67
2022-12-17T20:59:44.751Z,40.93
2022-12-17T21:04:49.015Z,42.53
2022-12-17T21:09:50.555Z,43.78
2022-12-17T21:14:51.963Z,37.37
2022-12-17T21:19:54.407Z,37.33
2022-12-17T21:24:56.173Z,34.47
2022-12-17T21:29:57.656Z,35.27
2022-12-17T21:34:59.516Z,34.53
2022-12-17T21:40:01.940Z,32.77
2022-12-17T21:45:03.808Z,32.63
2022-12-17T21:50:05.870Z,31.50
2022-12-17T21:55:07.813Z,30.27
2022-12-17T22:00:09.949Z,28.73
2022-12-17T22:05:16.236Z,29.40
2022-12-17T22:10:42.355Z,26.40
2022-12-17T22:15:48.005Z,25.73
2022-12-17T22:20:58.019Z,25.57
2022-12-17T22:25:59.497Z,29.93
2022-12-17T22:31:23.675Z,27.93
2022-12-17T22:39:09.935Z,25.80
2022-12-17T22:44:35.710Z,25.33
2022-12-17T22:47:31.810Z,24.90
2022-12-17T22:52:33.287Z,24.20
2022-12-17T22:57:38.244Z,24.63
2022-12-17T23:02:40.606Z,24.03
2022-12-17T23:07:43.157Z,24.23
2022-12-17T23:12:50.912Z,24.93
2022-12-17T23:17:54.427Z,25.27
2022-12-17T23:22:56.727Z,26.17
2022-12-17T23:27:58.740Z,25.50
2022-12-17T23:33:00.220Z,27.13
2022-12-17T23:38:01.620Z,27.47
2022-12-17T23:43:03.086Z,26.93
2022-12-17T23:48:05.142Z,25.87
2022-12-17T23:53:06.605Z,26.53
2022-12-17T23:58:08.059Z,30.03
